Time;durP1;ratioP1;P1;durP2;ratioP2;P2;SDS_P1;SDS_P2;PMS_P1;PMS_P2;Temp;Humidity;BMP_temperature;BMP_pressure;BME280_temperature;BME280_humidity;BME280_pressure;Samples;Min_cycle;Max_cycle;Signal;HPM_P1;HPM_P2
2022/11/03 00:04:39;;;;;;;13.68;2.53;;;;;;;9.45;67.82;100746.28;10206489;28;20148;-60
2022/11/03 00:09:40;;;;;;;12.88;2.80;;;;;;;9.58;67.63;100727.91;10214918;28;20463;-60
2022/11/03 00:14:41;;;;;;;11.35;3.22;;;;;;;9.66;67.30;100737.84;10199771;28;20051;-60
2022/11/03 00:19:43;;;;;;;11.60;3.50;;;;;;;9.76;67.40;100740.44;10203963;28;20044;-61
2022/11/03 00:24:44;;;;;;;14.32;3.40;;;;;;;9.83;67.27;100722.66;10206911;28;20079;-61
2022/11/03 00:29:46;;;;;;;7.45;2.70;;;;;;;9.76;67.74;100718.94;10205169;29;20087;-60
2022/11/03 00:34:47;;;;;;;9.35;2.63;;;;;;;9.81;67.48;100704.00;10205171;28;20564;-61
2022/11/03 00:39:48;;;;;;;7.90;2.55;;;;;;;9.74;67.49;100708.38;10194524;28;20056;-60
2022/11/03 00:44:50;;;;;;;7.95;2.67;;;;;;;9.63;67.85;100692.53;10212034;28;20075;-60
2022/11/03 00:49:51;;;;;;;10.02;3.42;;;;;;;9.69;67.66;100690.03;10210031;28;20071;-60
2022/11/03 00:54:53;;;;;;;7.80;3.05;;;;;;;9.55;68.03;100684.47;10208221;28;20495;-62
2022/11/03 00:59:55;;;;;;;6.05;2.53;;;;;;;9.51;67.87;100686.63;10206278;29;20679;-61
2022/11/03 01:10:16;;;;;;;10.27;2.10;;;;;;;9.53;67.69;100669.34;10207687;29;20059;-60
2022/11/03 01:15:18;;;;;;;6.85;2.35;;;;;;;9.54;67.76;100670.22;10208756;29;20410;-61
2022/11/03 01:20:19;;;;;;;9.40;2.65;;;;;;;9.48;67.53;100669.00;10210721;28;20063;-60
2022/11/03 01:25:21;;;;;;;13.13;2.20;;;;;;;9.41;67.86;100659.91;10200921;29;20046;-60
2022/11/03 01:30:22;;;;;;;8.25;1.83;;;;;;;9.32;67.74;100664.41;10202891;28;20048;-61
2022/11/03 01:35:23;;;;;;;8.07;2.50;;;;;;;9.28;68.28;100665.72;10209034;28;20070;-61
2022/11/03 01:40:25;;;;;;;11.23;2.50;;;;;;;9.27;68.18;100660.50;10219574;28;21637;-61
2022/11/03 01:45:26;;;;;;;7.88;2.40;;;;;;;9.20;68.64;100652.28;10200646;28;20483;-60
2022/11/03 01:50:29;;;;;;;11.43;2.75;;;;;;;9.15;68.69;100641.16;10207032;29;20053;-61
2022/11/03 01:55:38;;;;;;;5.72;2.70;;;;;;;9.23;68.80;100638.53;10213867;28;20129;-61
2022/11/03 02:00:42;;;;;;;9.48;2.78;;;;;;;9.29;68.38;100626.31;10215539;28;20059;-60
2022/11/03 02:05:45;;;;;;;14.85;3.15;;;;;;;9.18;68.85;100615.88;10208461;28;20051;-61
2022/11/03 02:10:48;;;;;;;9.15;2.92;;;;;;;9.24;68.80;100609.84;10211664;28;20044;-61
2022/11/03 02:15:53;;;;;;;10.60;3.20;;;;;;;9.23;68.61;100608.19;10209374;28;20078;-60
2022/11/03 02:21:21;;;;;;;23.55;11.43;;;;;;;9.19;68.50;100596.94;10206187;29;20065;-60
2022/11/03 02:26:22;;;;;;;9.18;2.47;;;;;;;9.11;68.94;100587.00;10197465;28;20664;-61
2022/11/03 02:31:47;;;;;;;10.48;2.92;;;;;;;9.10;68.59;100577.31;10214877;28;20056;-61
2022/11/03 02:36:54;;;;;;;7.28;3.05;;;;;;;9.05;68.81;100574.25;10212859;28;20056;-60
2022/11/03 02:42:00;;;;;;;8.60;3.17;;;;;;;8.98;68.94;100567.84;10210793;28;20127;-61
2022/11/03 02:47:06;;;;;;;9.45;2.70;;;;;;;8.98;68.40;100570.50;10221738;28;20079;-60
2022/11/03 02:52:38;;;;;;;7.80;2.28;;;;;;;8.95;68.90;100562.81;10205142;28;20068;-60
2022/11/03 02:57:58;;;;;;;8.65;2.10;;;;;;;8.92;68.88;100558.59;10193028;29;20410;-60
2022/11/03 03:03:09;;;;;;;8.25;2.63;;;;;;;8.85;69.03;100556.72;10221445;28;20062;-61
2022/11/03 03:08:12;;;;;;;8.27;2.65;;;;;;;8.73;68.95;100545.44;10210416;28;20114;-62
2022/11/03 03:13:18;;;;;;;8.63;2.53;;;;;;;8.73;68.76;100545.44;10199711;28;20043;-61
2022/11/03 03:18:25;;;;;;;9.43;2.58;;;;;;;8.71;68.93;100539.41;10207214;28;20776;-61
2022/11/03 03:23:32;;;;;;;9.05;2.65;;;;;;;8.70;69.21;100516.28;10201013;29;20043;-60
2022/11/03 03:28:44;;;;;;;10.60;3.77;;;;;;;8.64;68.78;100511.56;10210156;28;20134;-61
2022/11/03 03:33:49;;;;;;;8.90;2.90;;;;;;;8.60;68.68;100511.03;10200990;28;20062;-60
2022/11/03 03:39:01;;;;;;;13.40;3.10;;;;;;;8.57;68.60;100505.13;10202494;28;20051;-61
2022/11/03 03:44:07;;;;;;;9.35;2.75;;;;;;;8.50;69.45;100508.47;10195855;28;20168;-62
2022/11/03 03:49:08;;;;;;;8.15;3.45;;;;;;;8.48;69.40;100510.44;10201765;28;20071;-60
2022/11/03 03:54:09;;;;;;;7.88;2.33;;;;;;;8.43;68.85;100507.44;10214709;28;20051;-61
2022/11/03 03:59:11;;;;;;;7.32;3.00;;;;;;;8.41;68.83;100496.03;10213224;28;20131;-60
2022/11/03 04:04:12;;;;;;;8.30;2.53;;;;;;;8.31;69.38;100495.25;10210032;28;20078;-60
2022/11/03 04:09:14;;;;;;;8.68;2.75;;;;;;;8.24;69.13;100495.03;10217724;28;20057;-62
2022/11/03 04:24:57;;;;;;;7.50;2.95;;;;;;;8.19;68.96;100470.56;10217402;28;20075;-60
2022/11/03 04:30:23;;;;;;;5.35;2.78;;;;;;;8.19;69.55;100464.38;10202057;28;20462;-61
2022/11/03 04:35:27;;;;;;;11.07;3.03;;;;;;;8.14;69.10;100465.69;10202155;28;20055;-62
2022/11/03 04:40:28;;;;;;;8.52;2.80;;;;;;;8.08;69.86;100468.16;10206721;28;20130;-60
2022/11/03 04:45:32;;;;;;;12.95;3.05;;;;;;;8.02;69.31;100466.94;10206778;29;20059;-61
2022/11/03 04:50:34;;;;;;;12.38;3.05;;;;;;;8.03;69.63;100463.25;10199739;28;20055;-62
2022/11/03 04:55:35;;;;;;;8.57;3.17;;;;;;;8.03;69.84;100449.88;10217499;28;20131;-62
2022/11/03 05:00:38;;;;;;;7.93;3.60;;;;;;;8.02;69.75;100440.19;10202798;29;20087;-62
2022/11/03 05:05:39;;;;;;;9.25;3.80;;;;;;;7.99;69.25;100445.00;10211408;28;20047;-61
2022/11/03 05:10:40;;;;;;;9.27;3.97;;;;;;;7.92;69.63;100434.09;10213604;28;20040;-62
2022/11/03 05:15:44;;;;;;;8.13;3.35;;;;;;;7.84;69.27;100431.34;10213265;28;20048;-61
2022/11/03 05:20:53;;;;;;;9.20;3.63;;;;;;;7.85;69.95;100414.31;10208872;28;20619;-61
2022/11/03 05:25:57;;;;;;;7.85;3.00;;;;;;;7.84;69.57;100412.59;10214000;28;20540;-61
2022/11/03 05:30:58;;;;;;;6.47;3.05;;;;;;;7.82;69.61;100406.56;10204328;28;20055;-61
2022/11/03 05:36:04;;;;;;;13.05;4.22;;;;;;;7.80;69.92;100398.72;10211862;29;20135;-61
2022/11/03 05:41:23;;;;;;;15.88;3.35;;;;;;;7.80;69.25;100388.03;10205926;28;20880;-62
2022/11/03 05:46:28;;;;;;;13.73;6.40;;;;;;;7.81;69.71;100380.81;10204077;28;20135;-61
2022/11/03 05:51:38;;;;;;;6.63;2.85;;;;;;;7.81;69.22;100375.47;10217341;28;20439;-61
2022/11/03 05:56:39;;;;;;;16.23;5.65;;;;;;;7.74;69.79;100373.44;10217039;28;21117;-61
2022/11/03 06:01:41;;;;;;;12.30;5.35;;;;;;;7.73;70.40;100365.56;10212849;28;20055;-61
2022/11/03 06:06:52;;;;;;;12.88;5.35;;;;;;;7.72;69.55;100371.88;10213491;28;20051;-60
2022/11/03 06:11:57;;;;;;;11.23;3.75;;;;;;;7.60;70.38;100365.94;10206616;28;20040;-62
2022/11/03 06:17:09;;;;;;;13.27;3.85;;;;;;;7.65;69.80;100350.28;10212660;28;20095;-60
2022/11/03 06:22:26;;;;;;;14.65;3.38;;;;;;;7.74;69.39;100346.66;10211560;29;20115;-61
2022/11/03 06:27:32;;;;;;;9.38;3.28;;;;;;;7.79;69.86;100342.69;10208802;28;20048;-61
2022/11/03 06:32:34;;;;;;;9.75;3.60;;;;;;;7.69;70.32;100357.00;10206184;28;20118;-61
2022/11/03 06:37:35;;;;;;;10.38;3.47;;;;;;;7.77;70.03;100348.19;10201515;29;20470;-61
2022/11/03 06:42:40;;;;;;;16.55;3.88;;;;;;;7.88;69.60;100339.91;10209274;28;20706;-61
2022/11/03 06:47:41;;;;;;;8.48;3.40;;;;;;;7.94;69.27;100333.91;10214829;28;20082;-61
2022/11/03 06:52:47;;;;;;;10.15;3.95;;;;;;;7.95;70.26;100340.09;10223509;28;20075;-60
2022/11/03 06:58:21;;;;;;;8.73;4.00;;;;;;;7.89;70.55;100333.53;10220706;28;20059;-61
2022/11/03 07:03:26;;;;;;;9.77;4.40;;;;;;;7.99;69.88;100328.06;10225063;29;20075;-62
2022/11/03 07:08:34;;;;;;;13.32;3.90;;;;;;;8.08;70.09;100324.44;10226310;28;20051;-62
2022/11/03 07:13:36;;;;;;;7.65;3.50;;;;;;;8.18;69.58;100321.63;10210049;28;20131;-63
2022/11/03 07:18:42;;;;;;;10.80;4.68;;;;;;;8.27;69.91;100309.97;10210647;28;20138;-62
2022/11/03 07:23:43;;;;;;;19.45;4.60;;;;;;;8.43;70.20;100301.16;10222230;28;20109;-63
2022/11/03 07:28:48;;;;;;;11.02;3.78;;;;;;;8.56;70.00;100299.84;10209934;28;20047;-61
2022/11/03 07:33:55;;;;;;;7.78;3.00;;;;;;;8.66;70.07;100292.50;10216456;28;20480;-62
2022/11/03 07:38:58;;;;;;;;;;;;;;;8.71;70.16;100280.28;10218828;29;20150;-62
2022/11/03 07:44:01;;;;;;;12.75;4.60;;;;;;;8.86;70.00;100266.22;10204777;28;19954;-61
2022/11/03 07:49:07;;;;;;;9.70;3.53;;;;;;;8.97;70.06;100263.22;10216250;29;20059;-62
2022/11/03 07:54:19;;;;;;;11.60;4.18;;;;;;;9.13;70.13;100244.44;10217996;28;20079;-62
2022/11/03 07:59:25;;;;;;;8.10;3.22;;;;;;;9.36;70.24;100234.84;10211449;28;20094;-61
2022/11/03 08:04:32;;;;;;;5.38;2.97;;;;;;;9.53;70.08;100239.97;10203663;28;20048;-61
2022/11/03 08:09:33;;;;;;;7.78;3.03;;;;;;;9.70;70.26;100218.47;10213448;29;20146;-61
2022/11/03 08:14:36;;;;;;;8.00;3.10;;;;;;;9.96;70.06;100210.13;10213318;28;20057;-61
2022/11/03 08:19:38;;;;;;;8.32;2.95;;;;;;;10.20;70.06;100198.41;10204429;28;20139;-61
2022/11/03 08:24:39;;;;;;;9.15;2.70;;;;;;;10.47;69.95;100189.03;10216293;28;20047;-62
2022/11/03 08:29:41;;;;;;;6.03;2.38;;;;;;;10.70;69.98;100178.28;10210329;28;20534;-64
2022/11/03 08:34:42;;;;;;;7.40;3.25;;;;;;;10.94;69.92;100175.53;10200777;28;20105;-64
2022/11/03 08:39:49;;;;;;;6.80;3.45;;;;;;;11.10;69.43;100170.03;10202155;28;20091;-65
2022/11/03 08:44:51;;;;;;;8.60;2.88;;;;;;;11.22;69.13;100181.16;10205322;29;20467;-64
2022/11/03 08:49:52;;;;;;;8.73;3.08;;;;;;;11.14;69.51;100170.47;10202238;28;20071;-65
2022/11/03 08:54:53;;;;;;;9.95;2.88;;;;;;;11.13;69.87;100150.81;10210790;28;20131;-64
2022/11/03 08:59:55;;;;;;;7.00;2.90;;;;;;;11.23;69.48;100140.59;10200285;28;20590;-64
2022/11/03 09:04:57;;;;;;;8.90;3.28;;;;;;;11.30;69.77;100152.28;10203324;28;20078;-64
2022/11/03 09:09:58;;;;;;;6.68;2.65;;;;;;;11.52;69.04;100147.00;10193035;28;20135;-64
2022/11/03 09:15:20;;;;;;;8.63;3.17;;;;;;;11.45;69.41;100148.75;10204566;28;20068;-64
2022/11/03 09:20:21;;;;;;;6.85;2.70;;;;;;;11.53;69.36;100156.72;10181520;29;20391;-64
2022/11/03 09:25:22;;;;;;;9.73;2.00;;;;;;;11.81;68.96;100153.34;10204704;28;20134;-64
2022/11/03 09:30:24;;;;;;;8.95;2.40;;;;;;;12.05;68.50;100144.16;10200740;29;20123;-63
2022/11/03 09:35:26;;;;;;;10.18;2.58;;;;;;;12.31;68.11;100124.72;10210167;28;20567;-63
2022/11/03 09:40:28;;;;;;;11.73;2.40;;;;;;;12.64;67.98;100111.50;10214092;28;20125;-63
2022/11/03 09:45:29;;;;;;;5.55;3.05;;;;;;;12.93;66.96;100104.22;10205813;28;20079;-63
2022/11/03 09:50:31;;;;;;;8.18;2.45;;;;;;;13.18;66.70;100101.09;10206903;28;20052;-63
2022/11/03 09:55:33;;;;;;;8.63;2.47;;;;;;;13.35;66.27;100080.84;10202288;28;20150;-63
2022/11/03 10:00:34;;;;;;;6.10;2.80;;;;;;;13.44;66.20;100079.63;10210892;28;20578;-63
2022/11/03 10:05:38;;;;;;;16.27;2.80;;;;;;;13.63;65.27;100064.53;10202546;28;20040;-63
2022/11/03 10:10:39;;;;;;;6.38;2.10;;;;;;;13.78;64.95;100053.56;10213063;28;20047;-63
2022/11/03 10:15:41;;;;;;;11.13;4.20;;;;;;;13.99;64.66;100033.66;10208496;29;20555;-63
2022/11/03 10:20:42;;;;;;;7.60;2.90;;;;;;;14.08;64.66;100018.91;10213169;28;20812;-63
2022/11/03 10:25:44;;;;;;;11.02;3.85;;;;;;;14.32;64.06;100010.38;10216245;28;20142;-63
2022/11/03 10:31:01;;;;;;;9.77;2.92;;;;;;;14.46;63.72;100001.22;10216053;28;20056;-63
2022/11/03 10:36:15;;;;;;;6.90;2.78;;;;;;;14.67;63.22;99983.91;10205508;29;20067;-63
2022/11/03 10:41:28;;;;;;;12.85;4.13;;;;;;;14.83;63.08;99944.72;10212681;29;20528;-63
2022/11/03 10:46:30;;;;;;;7.95;2.78;;;;;;;15.12;62.68;99926.31;10223173;28;20063;-63
2022/11/03 10:51:56;;;;;;;10.75;3.08;;;;;;;15.26;62.15;99939.56;10214180;28;20062;-63
2022/11/03 10:56:57;;;;;;;6.50;2.60;;;;;;;15.36;61.98;99941.78;10222051;28;20139;-63
2022/11/03 11:01:59;;;;;;;9.43;2.78;;;;;;;15.22;61.77;99941.03;10206412;28;20135;-63
2022/11/03 11:07:01;;;;;;;6.15;2.90;;;;;;;15.29;61.58;99934.75;10210222;28;20048;-63
2022/11/03 11:12:06;;;;;;;12.95;3.33;;;;;;;15.45;61.00;99923.41;10210434;28;20078;-63
2022/11/03 11:17:36;;;;;;;7.38;2.95;;;;;;;15.39;61.03;99894.47;10203362;28;20127;-63
2022/11/03 11:22:37;;;;;;;9.77;3.33;;;;;;;15.31;60.95;99895.56;10208216;28;20122;-65
2022/11/03 11:27:38;;;;;;;7.70;2.42;;;;;;;15.49;60.56;99869.63;10206502;28;20130;-65
2022/11/03 11:32:55;;;;;;;10.35;3.08;;;;;;;15.63;60.11;99863.88;10220808;28;20054;-64
2022/11/03 11:38:35;;;;;;;8.02;2.85;;;;;;;15.84;59.76;99845.59;10206924;28;20090;-63
2022/11/03 11:43:37;;;;;;;7.30;2.50;;;;;;;15.94;59.70;99839.66;10212554;28;20130;-64
2022/11/03 11:48:39;;;;;;;7.32;2.50;;;;;;;15.90;59.89;99816.78;10211747;28;20101;-64
2022/11/03 11:53:41;;;;;;;7.55;2.53;;;;;;;15.97;59.48;99812.91;10211764;28;20050;-63
2022/11/03 11:58:46;;;;;;;8.73;2.97;;;;;;;15.87;59.35;99809.91;10202856;29;20166;-62
2022/11/03 12:03:48;;;;;;;12.93;4.15;;;;;;;15.80;59.53;99812.69;10196120;28;20146;-62
2022/11/03 12:08:50;;;;;;;7.32;3.00;;;;;;;15.70;59.69;99822.31;10196511;29;20069;-63
2022/11/03 12:13:51;;;;;;;12.18;2.85;;;;;;;15.75;59.39;99790.84;10210300;28;20043;-63
2022/11/03 12:18:54;;;;;;;7.88;2.35;;;;;;;15.74;59.42;99791.91;10210771;29;20079;-63
2022/11/03 12:23:55;;;;;;;9.27;3.33;;;;;;;15.57;59.85;99801.63;10205393;28;20151;-61
2022/11/03 12:28:56;;;;;;;13.07;3.58;;;;;;;15.21;60.52;99787.75;10206090;28;20065;-62
2022/11/03 12:33:58;;;;;;;10.07;3.65;;;;;;;14.97;61.20;99775.84;10203583;28;20142;-61
2022/11/03 12:38:59;;;;;;;10.52;3.35;;;;;;;15.07;60.90;99757.25;10197168;28;20467;-62
2022/11/03 12:44:01;;;;;;;13.15;3.38;;;;;;;15.11;60.81;99727.03;10201909;28;20057;-61
2022/11/03 12:49:02;;;;;;;9.75;3.25;;;;;;;15.17;60.80;99699.88;10203917;28;20047;-63
2022/11/03 12:54:03;;;;;;;8.85;2.80;;;;;;;15.22;60.60;99708.16;10189238;29;20062;-63
2022/11/03 12:59:05;;;;;;;14.00;3.28;;;;;;;15.24;60.52;99705.22;10207579;29;20181;-64
2022/11/03 13:04:07;;;;;;;12.50;3.75;;;;;;;15.49;60.18;99685.44;10198240;29;20146;-63
2022/11/03 13:09:08;;;;;;;15.45;3.55;;;;;;;15.60;59.91;99690.94;10198345;28;20499;-65
2022/11/03 13:14:10;;;;;;;13.63;4.90;;;;;;;15.62;59.83;99671.72;10204206;28;20130;-65
2022/11/03 13:19:11;;;;;;;8.15;3.25;;;;;;;15.70;59.42;99659.75;10216411;28;20138;-64
2022/11/03 13:24:12;;;;;;;5.65;3.20;;;;;;;15.70;59.63;99640.78;10213718;28;20514;-64
2022/11/03 13:29:14;;;;;;;8.15;3.42;;;;;;;15.68;59.52;99641.03;10212775;28;20079;-64
2022/11/03 13:34:15;;;;;;;11.10;2.83;;;;;;;15.73;59.36;99634.94;10217263;29;20063;-63
2022/11/03 13:39:17;;;;;;;9.88;2.75;;;;;;;15.77;59.20;99628.00;10202422;29;20146;-63
2022/11/03 13:44:18;;;;;;;10.70;3.20;;;;;;;15.63;59.45;99603.75;10202273;29;20056;-63
2022/11/03 13:49:21;;;;;;;11.88;3.47;;;;;;;15.82;59.10;99587.53;10212810;28;20238;-62
2022/11/03 13:54:42;;;;;;;9.98;2.72;;;;;;;15.80;59.16;99576.91;10215018;28;20044;-63
2022/11/03 14:00:05;;;;;;;8.00;2.85;;;;;;;15.84;59.05;99580.00;10205970;28;20052;-64
2022/11/03 14:05:07;;;;;;;7.38;2.78;;;;;;;15.72;59.28;99571.78;10210126;28;20078;-63
2022/11/03 14:10:11;;;;;;;8.57;3.33;;;;;;;15.59;59.69;99571.94;10214235;28;20044;-63
2022/11/03 14:15:13;;;;;;;7.60;2.92;;;;;;;15.59;59.34;99559.22;10208318;28;20055;-63
2022/11/03 14:20:14;;;;;;;9.90;2.92;;;;;;;15.68;59.39;99540.78;10200299;29;20139;-63
2022/11/03 14:25:18;;;;;;;10.30;2.88;;;;;;;15.55;59.67;99514.69;10209857;28;20047;-63
2022/11/03 14:30:20;;;;;;;10.25;2.92;;;;;;;15.66;59.46;99508.50;10201542;28;20542;-62
2022/11/03 14:35:22;;;;;;;8.88;3.15;;;;;;;15.65;59.52;99512.25;10208326;28;20421;-63
2022/11/03 14:45:43;;;;;;;9.43;3.78;;;;;;;15.67;59.57;99474.91;10208367;29;20085;-63
2022/11/03 14:50:45;;;;;;;10.40;3.67;;;;;;;15.65;59.83;99459.94;10215816;28;20398;-63
2022/11/03 14:55:46;;;;;;;12.65;3.38;;;;;;;15.37;60.51;99457.84;10220108;28;20150;-63
2022/11/03 15:00:47;;;;;;;12.43;4.18;;;;;;;15.06;61.33;99465.13;10210678;29;20139;-63
2022/11/03 15:05:53;;;;;;;11.43;4.03;;;;;;;14.83;61.78;99466.63;10205086;28;20052;-63
2022/11/03 15:10:54;;;;;;;8.90;4.25;;;;;;;14.78;61.91;99452.94;10201002;28;20127;-63
2022/11/03 15:15:55;;;;;;;11.30;4.03;;;;;;;14.96;61.11;99438.59;10217369;28;20078;-62
2022/11/03 15:20:57;;;;;;;9.57;4.68;;;;;;;15.00;61.27;99438.97;10214067;28;20083;-63
2022/11/03 15:25:58;;;;;;;9.55;3.40;;;;;;;14.94;61.60;99435.28;10206536;28;20174;-64
2022/11/03 15:31:00;;;;;;;15.55;6.55;;;;;;;14.78;61.99;99436.72;10211048;28;20408;-64
2022/11/03 15:36:03;;;;;;;14.00;5.15;;;;;;;14.79;62.02;99414.03;10209583;28;20150;-63
2022/11/03 15:41:18;;;;;;;9.98;3.63;;;;;;;14.85;61.93;99402.31;10210993;28;20051;-64
2022/11/03 15:46:19;;;;;;;14.48;5.57;;;;;;;14.81;62.02;99398.41;10213550;28;20047;-64
2022/11/03 15:51:21;;;;;;;10.55;4.85;;;;;;;14.81;62.20;99386.72;10211859;28;20134;-64
2022/11/03 15:56:22;;;;;;;14.95;5.55;;;;;;;14.85;62.12;99377.13;10211249;28;20138;-64
2022/11/03 16:01:24;;;;;;;11.75;5.00;;;;;;;14.83;62.34;99380.06;10203306;29;20063;-64
2022/11/03 16:06:25;;;;;;;11.70;5.15;;;;;;;14.81;62.49;99367.78;10201932;28;20087;-64
2022/11/03 16:11:47;;;;;;;11.90;6.10;;;;;;;14.65;63.31;99366.53;10207477;28;20059;-64
2022/11/03 16:16:48;;;;;;;19.50;6.80;;;;;;;14.72;62.91;99347.53;10201029;28;20082;-65
2022/11/03 16:21:50;;;;;;;10.38;4.60;;;;;;;14.74;62.78;99343.53;10211806;28;20127;-65
2022/11/03 16:26:51;;;;;;;11.15;5.90;;;;;;;14.72;63.13;99328.59;10207258;28;21408;-67
2022/11/03 16:31:53;;;;;;;13.52;4.32;;;;;;;14.54;63.78;99324.00;10211275;28;20079;-66
2022/11/03 16:36:55;;;;;;;11.88;6.07;;;;;;;14.30;64.71;99310.38;10196037;29;20147;-66
2022/11/03 16:41:56;;;;;;;18.10;7.57;;;;;;;14.22;65.20;99308.78;10207518;28;20065;-67
2022/11/03 16:46:57;;;;;;;16.08;6.50;;;;;;;14.15;65.40;99302.63;10203338;28;20051;-67
2022/11/03 16:51:59;;;;;;;20.95;9.27;;;;;;;14.11;65.83;99297.91;10215512;28;20051;-67
2022/11/03 16:57:00;;;;;;;16.77;8.68;;;;;;;13.98;66.26;99296.16;10206906;28;20227;-67
2022/11/03 17:02:02;;;;;;;14.82;7.72;;;;;;;13.88;66.89;99297.50;10209201;28;20064;-67
2022/11/03 17:07:03;;;;;;;15.05;6.60;;;;;;;13.80;67.12;99289.72;10213266;28;20138;-67
2022/11/03 17:12:05;;;;;;;17.98;6.80;;;;;;;13.72;67.40;99292.66;10226033;28;20044;-67
2022/11/03 17:17:07;;;;;;;18.27;7.30;;;;;;;13.70;68.10;99281.25;10232651;28;20044;-67
2022/11/03 17:22:08;;;;;;;15.95;5.55;;;;;;;13.66;68.46;99278.22;10242252;29;20526;-67
2022/11/03 17:27:24;;;;;;;15.45;6.68;;;;;;;13.58;69.01;99273.06;10241666;28;20039;-66
2022/11/03 17:32:33;;;;;;;20.65;7.32;;;;;;;13.61;69.32;99258.31;10245324;28;20054;-66
2022/11/03 17:37:35;;;;;;;25.60;11.25;;;;;;;13.59;69.28;99245.03;10235464;28;20482;-67
2022/11/03 17:42:36;;;;;;;19.13;8.00;;;;;;;13.53;70.13;99231.63;10227403;29;20035;-66
2022/11/03 17:47:37;;;;;;;16.75;6.88;;;;;;;13.47;70.36;99217.13;10224279;28;20048;-66
2022/11/03 17:52:39;;;;;;;13.40;6.60;;;;;;;13.47;70.44;99192.81;10226830;28;20043;-67
2022/11/03 17:57:41;;;;;;;18.50;6.32;;;;;;;13.40;70.46;99194.75;10241754;28;20043;-66
2022/11/03 18:02:43;;;;;;;15.35;5.80;;;;;;;13.28;70.92;99192.75;10243102;28;20407;-66
2022/11/03 18:07:44;;;;;;;16.92;7.05;;;;;;;13.25;71.23;99177.03;10243080;28;20533;-65
2022/11/03 18:18:15;;;;;;;20.92;7.72;;;;;;;13.31;71.21;99155.59;10235599;28;20498;-66
2022/11/03 18:23:30;;;;;;;30.85;19.08;;;;;;;13.13;71.82;99154.53;10236084;28;20047;-65
2022/11/03 18:28:31;;;;;;;19.00;11.15;;;;;;;13.09;71.85;99158.69;10233342;28;20040;-65
2022/11/03 18:33:34;;;;;;;47.63;17.30;;;;;;;13.05;72.28;99131.34;10226535;28;20036;-65
2022/11/03 18:38:40;;;;;;;26.25;10.48;;;;;;;12.97;72.67;99130.78;10227864;29;20410;-65
2022/11/03 18:43:41;;;;;;;27.15;13.27;;;;;;;13.07;72.53;99106.81;10230446;28;20050;-65
2022/11/03 18:48:42;;;;;;;32.70;15.15;;;;;;;13.11;72.00;99108.03;10230616;28;20168;-66
2022/11/03 18:53:44;;;;;;;21.75;10.90;;;;;;;13.13;72.23;99099.72;10233386;28;20048;-66
2022/11/03 18:58:47;;;;;;;26.15;10.90;;;;;;;13.21;72.31;99102.09;10225830;28;20070;-66
2022/11/03 19:03:48;;;;;;;28.77;10.70;;;;;;;13.02;72.84;99114.78;10238981;28;20047;-64
2022/11/03 19:08:57;;;;;;;22.02;8.23;;;;;;;12.83;74.04;99157.03;10237906;28;20164;-64
2022/11/03 19:14:00;;;;;;;17.38;8.57;;;;;;;12.69;74.29;99156.31;10205976;28;20048;-63
2022/11/03 19:19:01;;;;;;;18.35;9.80;;;;;;;12.85;74.15;99149.56;10226491;28;20059;-63
2022/11/03 19:24:03;;;;;;;17.00;9.38;;;;;;;12.50;75.44;99202.09;10243254;28;20511;-65
2022/11/03 19:29:09;;;;;;;20.33;8.90;;;;;;;12.55;75.30;99142.13;10229428;28;20067;-65
2022/11/03 19:34:21;;;;;;;15.10;7.20;;;;;;;12.65;75.22;99147.84;10236247;28;20119;-66
2022/11/03 19:39:30;;;;;;;16.20;6.65;;;;;;;12.63;75.35;99122.16;10214010;28;20048;-65
2022/11/03 19:44:31;;;;;;;18.33;6.93;;;;;;;12.57;75.76;99110.38;10246608;28;20352;-65
2022/11/03 19:49:33;;;;;;;14.93;8.05;;;;;;;12.50;75.96;99098.84;10235245;28;20043;-64
2022/11/03 19:54:34;;;;;;;18.05;8.85;;;;;;;12.53;76.06;99089.47;10259984;28;20083;-65
2022/11/03 19:59:35;;;;;;;27.23;11.57;;;;;;;12.64;76.21;99081.50;10752174;23;20045;-65
2022/11/03 20:04:38;;;;;;;18.02;8.80;;;;;;;12.79;75.84;99078.44;11141040;22;20033;-66
2022/11/03 20:09:40;;;;;;;18.55;8.82;;;;;;;12.83;75.75;99081.53;10412544;28;20053;-65
2022/11/03 20:14:41;;;;;;;24.90;9.80;;;;;;;12.86;75.79;99076.53;10417088;28;20042;-65
2022/11/03 20:19:43;;;;;;;24.40;10.85;;;;;;;12.93;75.69;99062.97;10933322;22;20045;-65
2022/11/03 20:24:47;;;;;;;26.23;10.65;;;;;;;12.99;75.78;99067.47;11222533;22;20218;-64
2022/11/03 20:29:48;;;;;;;23.65;11.15;;;;;;;12.99;75.92;99061.25;11850691;22;20021;-64
2022/11/03 20:34:50;;;;;;;20.48;9.65;;;;;;;12.99;75.74;99053.16;10304450;28;20043;-65
2022/11/03 20:39:51;;;;;;;18.70;9.18;;;;;;;12.98;76.42;99049.66;10277921;28;20042;-68
2022/11/03 20:44:53;;;;;;;19.60;9.45;;;;;;;12.94;76.45;99045.75;10269321;28;20082;-68
2022/11/03 20:49:54;;;;;;;19.00;9.07;;;;;;;12.89;76.09;99038.34;10268742;28;20483;-67
2022/11/03 20:54:56;;;;;;;20.73;8.80;;;;;;;12.91;76.08;99032.69;10264939;28;20057;-68
2022/11/03 20:59:57;;;;;;;16.05;7.88;;;;;;;12.96;76.49;99016.69;10269282;28;20134;-67
2022/11/03 21:04:58;;;;;;;15.02;8.20;;;;;;;12.93;76.37;99009.03;10263907;28;20075;-67
2022/11/03 21:10:00;;;;;;;19.73;8.55;;;;;;;12.97;76.54;99010.22;10264278;28;20063;-67
2022/11/03 21:20:25;;;;;;;14.70;7.88;;;;;;;12.87;76.67;98993.75;10262094;28;20059;-66
2022/11/03 21:25:27;;;;;;;13.77;7.63;;;;;;;12.85;77.09;99004.75;10258314;28;20097;-67
2022/11/03 21:30:28;;;;;;;21.33;8.73;;;;;;;12.88;77.17;99007.00;10266180;28;20077;-67
2022/11/03 21:35:30;;;;;;;17.33;8.38;;;;;;;12.89;76.81;99008.66;10263389;28;20133;-67
2022/11/03 21:40:31;;;;;;;17.42;7.22;;;;;;;12.81;77.52;99005.44;10267538;28;20129;-66
2022/11/03 21:45:32;;;;;;;18.05;8.45;;;;;;;12.82;77.36;99016.00;10271327;28;20075;-67
2022/11/03 21:50:34;;;;;;;21.15;8.65;;;;;;;12.99;77.02;99018.91;10270463;28;20110;-66
2022/11/03 21:55:35;;;;;;;20.52;8.73;;;;;;;13.09;76.72;99023.78;10267216;28;20708;-66
2022/11/03 22:00:37;;;;;;;16.45;8.25;;;;;;;13.11;76.78;99013.59;10270935;28;20133;-66
2022/11/03 22:05:38;;;;;;;16.67;9.43;;;;;;;13.07;77.17;99017.78;10266678;28;20075;-67
2022/11/03 22:10:40;;;;;;;24.75;9.18;;;;;;;13.15;76.90;99012.13;10271957;28;20070;-67
2022/11/03 22:31:41;;;;;;;12.23;5.68;;;;;;;13.06;78.71;99022.38;10263683;28;20097;-65
2022/11/03 22:36:42;;;;;;;13.50;5.93;;;;;;;13.03;79.21;99041.72;10260064;28;20134;-65
2022/11/03 22:47:07;;;;;;;17.08;7.10;;;;;;;13.09;79.06;99019.22;10282321;28;20047;-65
2022/11/03 22:52:09;;;;;;;14.30;7.90;;;;;;;13.12;79.32;99034.13;10279763;28;20070;-65
2022/11/03 22:57:12;;;;;;;17.23;8.00;;;;;;;13.14;79.25;99063.59;10292975;28;20043;-64
2022/11/03 23:02:13;;;;;;;13.20;8.20;;;;;;;13.17;78.95;99063.97;10300927;28;20058;-65
2022/11/03 23:07:14;;;;;;;15.55;7.10;;;;;;;13.16;79.55;99054.22;10290643;28;20296;-64
2022/11/03 23:12:16;;;;;;;13.88;6.95;;;;;;;13.18;79.15;99079.09;10285046;28;20046;-64
2022/11/03 23:17:17;;;;;;;12.98;6.28;;;;;;;13.17;79.54;99085.56;10299535;28;20052;-64
2022/11/03 23:22:18;;;;;;;10.93;6.75;;;;;;;13.24;78.85;99075.50;10300654;28;20058;-64
2022/11/03 23:27:20;;;;;;;16.30;7.18;;;;;;;13.31;79.04;99099.78;10288794;28;20050;-65
2022/11/03 23:32:21;;;;;;;14.98;7.85;;;;;;;13.32;78.77;99093.31;10287389;28;20413;-65
2022/11/03 23:37:22;;;;;;;16.35;8.82;;;;;;;13.32;78.77;99109.50;10294229;28;20054;-64
2022/11/03 23:42:24;;;;;;;15.68;7.97;;;;;;;13.39;78.06;99121.06;10291655;28;20047;-64
2022/11/03 23:52:45;;;;;;;13.75;7.28;;;;;;;13.45;78.14;99120.16;10276225;28;20134;-64
